Ringold, Oklahoma
Current Conditions -  °F | °C
As of 9:55 AM on Sunday 23 Nov 2014 (Local Time) from K4O4 Reporting Station
Overcast Overcast  
Wind Chill: 61°   Ceiling: 900
Heat Index: 61°   Visibility: 10mi
Dew Point: 59°   Wind: 7mph
Humidity: 94%   Direction: 170°S
Pressure: 29.53"   Gusts: NA
Location:  34.22°N, 95.13°W
Report Text: K4O4 231555Z AUTO 17006KT 10SM BKN009 OVC017 16/15 A2953 RMK AO2
Loading
Personal Weather Stations






























Interactive Weather Map New forecast layout! Learn more

10-Day Weather Forecast

Advertisements
Track Severe Weather on mobile